To NAV CANADA Home Page Login to a new session Search on AWWS site Disclaimer Vers la page française équivalente Tips FAQ What's new on the site To the Forecasts and Observations / NOTAM section To "File a Flight Plan" website Publications and other links Update of the User's profile FIC Telephone Numbers My Weather Data Folder Route Weather Data Regional Weather Data Local Weather Data To the Forecasts and Observations / NOTAM section
Request Generated 11/13/2018 at 18:05:02 UTC . Weather information available at that time is displayed.

METAR/TAF

BAGOTVILLE/QC    

METAR CYBG 131800Z 08011KT 2SM -SN SCT004 OVC025 M02/M04 A2991 RMK SF4SC4 VIS VRB 1-3 SLP140=
METAR CYBG 131700Z 07012KT 1 1/2SM -SN VV010 M03/M04 A2995 RMK SN8 VIS VRB 1-2 SLP155=
METAR CYBG 131600Z CCA 08012KT 1 1/2SM -SN VV010 M03/M04 A3000 RMK SN8 VIS VRB 1-2 /S01/ SLP170=
METAR CYBG 131600Z 08012KT 1 1/2SM -SN VV010 M03/M04 A3000 RMK SN8 VIS VRB 1-2 SLP170=

TAF CYBG 131733Z 1318/1418 08012KT 4SM -SN OVC025 TEMPO 1318/1323
11/2SM -SN VV015
BECMG 1321/1323 29015G25KT
FM132300 29015G25KT 6SM -SN BKN015 OVC030 TEMPO 1323/1403 2SM
-SHSN OVC015
FM140300 29018G30KT P6SM BKN025 TEMPO 1403/1414 3SM -SHSN BKN020
BECMG 1407/1409 30015G25KT
FM141400 30015G25KT 2SM -SHSN BKN015
BECMG 1416/1418 28020G30KT
RMK NXT FCST BY 132100Z=
Your time UTC time
Weather data provided by Environment Canada and NAV CANADA